createdAt,value
2022-11-29T00:00:58.545Z,38.08
2022-11-29T00:03:30.216Z,38.02
2022-11-29T00:06:05.682Z,38.24
2022-11-29T00:08:41.430Z,38.25
2022-11-29T00:11:35.766Z,38.44
2022-11-29T00:14:10.116Z,38.39
2022-11-29T00:16:42.741Z,38.47
2022-11-29T00:19:14.087Z,38.52
2022-11-29T00:21:51.726Z,38.51
2022-11-29T00:24:21.897Z,38.63
2022-11-29T00:26:59.931Z,38.58
2022-11-29T00:29:28.116Z,38.64
2022-11-29T00:31:59.209Z,38.69
2022-11-29T00:34:35.038Z,38.66
2022-11-29T00:37:08.520Z,38.80
2022-11-29T00:39:41.870Z,38.82
2022-11-29T00:42:17.835Z,38.90
2022-11-29T00:44:48.477Z,38.94
2022-11-29T00:47:18.220Z,38.86
2022-11-29T00:49:51.364Z,38.79
2022-11-29T00:52:24.760Z,38.85
2022-11-29T00:55:00.306Z,39.06
2022-11-29T00:57:33.085Z,39.05
2022-11-29T01:00:09.416Z,38.93
2022-11-29T01:02:42.742Z,38.87
2022-11-29T01:05:18.776Z,39.06
2022-11-29T01:07:49.233Z,39.23
2022-11-29T01:10:22.443Z,39.20
2022-11-29T01:12:56.622Z,39.21
2022-11-29T01:15:27.150Z,39.28
2022-11-29T01:17:57.058Z,39.19
2022-11-29T01:20:32.263Z,39.27
2022-11-29T01:23:04.236Z,39.00
2022-11-29T01:25:39.523Z,39.08
2022-11-29T01:28:12.042Z,39.21
2022-11-29T01:30:41.743Z,39.26
2022-11-29T01:33:09.413Z,39.12
2022-11-29T01:35:54.624Z,38.90
2022-11-29T01:38:24.942Z,39.24
2022-11-29T01:41:08.636Z,39.30
2022-11-29T01:44:04.673Z,38.90
2022-11-29T01:46:38.401Z,39.04
2022-11-29T01:49:17.888Z,39.04
2022-11-29T01:52:09.064Z,39.17
2022-11-29T01:54:40.616Z,39.12
2022-11-29T01:57:11.687Z,39.17
2022-11-29T01:59:48.064Z,39.05
2022-11-29T02:02:31.214Z,39.31
2022-11-29T02:05:05.404Z,39.02
2022-11-29T02:07:37.043Z,39.00
2022-11-29T02:10:06.861Z,38.78
2022-11-29T02:12:48.450Z,38.85
2022-11-29T02:15:34.423Z,38.73
2022-11-29T02:18:29.373Z,38.73
2022-11-29T02:21:15.265Z,38.41
2022-11-29T02:23:57.643Z,38.46
2022-11-29T02:26:42.657Z,38.25
2022-11-29T02:29:28.319Z,38.38
2022-11-29T02:32:14.459Z,38.30
2022-11-29T02:35:01.210Z,38.25
2022-11-29T02:38:06.615Z,38.13
2022-11-29T02:40:45.931Z,37.82
2022-11-29T02:43:28.331Z,37.99
2022-11-29T02:46:52.110Z,38.13
2022-11-29T02:49:23.265Z,37.86
2022-11-29T02:52:36.017Z,37.86
2022-11-29T02:55:25.623Z,38.02
2022-11-29T02:58:28.485Z,37.81
2022-11-29T03:01:08.439Z,37.90
2022-11-29T03:03:45.034Z,37.83
2022-11-29T03:06:26.690Z,37.83
2022-11-29T03:09:17.110Z,37.86
2022-11-29T03:12:09.257Z,37.81
2022-11-29T03:15:01.647Z,37.98
2022-11-29T03:17:34.743Z,37.95
2022-11-29T03:20:21.264Z,38.01
2022-11-29T03:23:08.439Z,38.12
2022-11-29T03:26:05.338Z,38.27
2022-11-29T03:28:45.323Z,38.37
2022-11-29T03:31:28.918Z,38.41
2022-11-29T03:34:18.840Z,38.63
2022-11-29T03:36:58.299Z,38.21
2022-11-29T03:39:39.949Z,38.45
2022-11-29T03:42:46.291Z,38.67
2022-11-29T03:45:49.266Z,38.69
2022-11-29T03:48:26.470Z,38.81
2022-11-29T03:51:05.087Z,38.86
2022-11-29T03:54:05.373Z,38.90
2022-11-29T03:56:36.377Z,38.75
2022-11-29T03:59:18.489Z,38.90
2022-11-29T04:02:17.647Z,38.94
2022-11-29T04:05:28.941Z,39.00
2022-11-29T04:08:20.750Z,38.81
2022-11-29T04:11:08.867Z,38.93
2022-11-29T04:13:55.106Z,39.03
2022-11-29T04:17:10.993Z,38.97
2022-11-29T04:20:07.711Z,39.06
2022-11-29T04:22:43.928Z,39.01
2022-11-29T04:25:36.384Z,39.14
2022-11-29T04:28:15.657Z,38.96
2022-11-29T04:31:06.281Z,39.23
2022-11-29T04:33:58.034Z,39.10
2022-11-29T04:36:46.750Z,39.16
2022-11-29T04:39:47.566Z,38.96
2022-11-29T04:42:30.673Z,39.13
2022-11-29T04:45:10.172Z,39.10
2022-11-29T04:47:52.001Z,39.04
2022-11-29T04:50:46.602Z,39.26
2022-11-29T04:53:44.714Z,39.25
2022-11-29T04:56:14.742Z,39.19
2022-11-29T04:59:06.202Z,39.17
2022-11-29T05:02:02.815Z,39.38
2022-11-29T05:04:38.542Z,39.25
2022-11-29T05:07:35.485Z,39.09
2022-11-29T05:10:29.803Z,39.34
2022-11-29T05:13:14.497Z,39.41
2022-11-29T05:15:59.007Z,39.32
2022-11-29T05:18:47.463Z,39.10
2022-11-29T05:21:52.288Z,39.19
2022-11-29T05:25:01.897Z,39.09
2022-11-29T05:27:48.695Z,38.91
2022-11-29T05:30:34.601Z,38.92
2022-11-29T05:33:11.417Z,39.05
2022-11-29T05:36:13.713Z,39.00
2022-11-29T05:39:06.290Z,38.97
2022-11-29T05:41:36.703Z,38.82
2022-11-29T05:44:24.040Z,39.08
2022-11-29T05:47:02.487Z,38.90
2022-11-29T05:50:17.078Z,38.97
2022-11-29T05:53:07.789Z,38.92
2022-11-29T05:55:46.513Z,38.99
2022-11-29T05:58:30.507Z,39.07
2022-11-29T06:01:29.513Z,38.90
2022-11-29T06:04:21.396Z,39.12
2022-11-29T06:07:11.623Z,38.95
2022-11-29T06:09:51.317Z,38.92
2022-11-29T06:12:23.553Z,39.00
2022-11-29T06:15:13.729Z,39.15
2022-11-29T06:18:28.683Z,39.01
2022-11-29T06:21:17.571Z,38.73
2022-11-29T06:24:06.493Z,39.05
2022-11-29T06:26:46.112Z,38.83
2022-11-29T06:29:29.896Z,38.94
2022-11-29T06:32:34.219Z,39.18
2022-11-29T06:35:11.923Z,38.85
2022-11-29T06:37:45.195Z,38.90
2022-11-29T06:40:15.833Z,38.99
2022-11-29T06:42:46.024Z,38.99
2022-11-29T06:45:16.244Z,38.87
2022-11-29T06:48:10.384Z,38.85
2022-11-29T06:50:56.077Z,38.95
2022-11-29T06:53:46.379Z,38.90
2022-11-29T06:56:45.808Z,39.14
2022-11-29T06:59:39.235Z,39.09
2022-11-29T07:02:45.656Z,38.99
2022-11-29T07:05:28.203Z,39.13
2022-11-29T07:07:58.162Z,39.13
2022-11-29T07:10:27.691Z,39.18
2022-11-29T07:12:55.302Z,39.03
2022-11-29T07:15:23.762Z,39.04
2022-11-29T07:18:38.431Z,38.99
2022-11-29T07:21:32.972Z,38.68
2022-11-29T07:24:26.264Z,38.61
2022-11-29T07:27:26.681Z,38.89
2022-11-29T07:30:42.035Z,38.53
2022-11-29T07:33:15.447Z,38.60
2022-11-29T07:35:58.850Z,38.46
2022-11-29T07:38:39.897Z,38.34
2022-11-29T07:41:17.656Z,38.17
2022-11-29T07:44:08.769Z,38.15
2022-11-29T07:46:42.136Z,38.00
2022-11-29T07:49:13.768Z,37.42
2022-11-29T07:51:48.998Z,37.07
2022-11-29T07:54:19.021Z,36.87
2022-11-29T07:56:54.383Z,36.76
2022-11-29T07:59:23.469Z,36.91
2022-11-29T08:01:59.643Z,37.06
2022-11-29T08:04:30.045Z,37.32
2022-11-29T08:07:03.160Z,37.05
2022-11-29T08:09:33.560Z,36.85
2022-11-29T08:12:04.068Z,36.97
2022-11-29T08:14:38.770Z,36.99
2022-11-29T08:17:13.400Z,36.97
2022-11-29T08:19:49.641Z,36.92
2022-11-29T08:22:26.530Z,36.51
2022-11-29T08:25:05.795Z,36.16
2022-11-29T08:27:42.080Z,35.55
2022-11-29T08:30:10.030Z,36.11
2022-11-29T08:32:51.224Z,36.40
2022-11-29T08:35:24.977Z,36.45
2022-11-29T08:38:05.174Z,36.79
2022-11-29T08:40:44.483Z,36.38
2022-11-29T08:43:20.883Z,36.48
2022-11-29T08:46:00.937Z,36.78
2022-11-29T08:48:35.696Z,36.39
2022-11-29T08:51:15.513Z,36.46
2022-11-29T08:53:57.278Z,36.28
2022-11-29T08:57:16.664Z,35.87
2022-11-29T08:59:37.804Z,35.94
2022-11-29T09:02:05.751Z,36.05
2022-11-29T09:04:39.084Z,36.50
2022-11-29T09:07:08.896Z,36.79
2022-11-29T09:09:41.647Z,36.80
2022-11-29T09:12:14.562Z,37.02
2022-11-29T09:14:50.483Z,36.87
2022-11-29T09:17:23.292Z,36.33
2022-11-29T09:19:51.131Z,36.48
2022-11-29T09:22:24.052Z,36.46
2022-11-29T09:24:56.039Z,36.41
2022-11-29T09:27:29.207Z,36.38
2022-11-29T09:29:59.674Z,36.09
2022-11-29T09:32:39.977Z,35.72
2022-11-29T09:35:08.219Z,36.28
2022-11-29T09:37:47.223Z,36.09
2022-11-29T09:40:28.008Z,35.75
2022-11-29T09:43:23.900Z,36.32
2022-11-29T09:46:00.500Z,36.51
2022-11-29T09:48:55.652Z,36.70
2022-11-29T09:51:41.151Z,36.96
2022-11-29T09:54:30.090Z,36.75
2022-11-29T09:57:10.336Z,37.03
2022-11-29T09:59:51.870Z,36.72
2022-11-29T10:02:25.892Z,37.08
2022-11-29T10:05:05.746Z,37.67
2022-11-29T10:07:41.062Z,37.73
2022-11-29T10:10:29.741Z,37.74
2022-11-29T10:13:26.644Z,37.49
2022-11-29T10:16:04.308Z,37.47
2022-11-29T10:18:51.393Z,37.61
2022-11-29T10:21:28.091Z,37.57
2022-11-29T10:24:07.492Z,37.89
2022-11-29T10:26:43.645Z,37.27
2022-11-29T10:29:19.286Z,37.90
2022-11-29T10:31:49.686Z,37.95
2022-11-29T10:34:27.234Z,37.72
2022-11-29T10:37:02.726Z,37.89
2022-11-29T10:39:42.266Z,37.79
2022-11-29T10:42:47.372Z,37.67
2022-11-29T10:45:34.045Z,37.63
2022-11-29T10:48:12.263Z,38.29
2022-11-29T10:50:50.105Z,38.28
2022-11-29T10:53:39.597Z,37.92
2022-11-29T10:56:24.274Z,37.94
2022-11-29T10:59:09.528Z,37.85
2022-11-29T11:01:41.262Z,38.26
2022-11-29T11:04:32.785Z,38.27
2022-11-29T11:07:08.926Z,38.24
2022-11-29T11:09:50.709Z,37.85
2022-11-29T11:12:29.164Z,38.16
2022-11-29T11:15:26.616Z,38.31
2022-11-29T11:18:04.990Z,38.27
2022-11-29T11:20:44.501Z,38.36
2022-11-29T11:23:29.317Z,38.41
2022-11-29T11:25:58.738Z,38.30
2022-11-29T11:28:38.347Z,37.90
2022-11-29T11:31:11.919Z,38.27
2022-11-29T11:33:45.545Z,38.69
2022-11-29T11:36:22.289Z,38.29
2022-11-29T11:39:01.352Z,38.68
2022-11-29T11:41:55.281Z,38.02
2022-11-29T11:44:51.464Z,38.47
2022-11-29T11:47:35.140Z,38.30
2022-11-29T11:50:15.004Z,38.37
2022-11-29T11:52:53.429Z,38.56
2022-11-29T11:55:35.857Z,38.08
2022-11-29T11:58:21.112Z,38.13
2022-11-29T12:01:04.072Z,38.44
2022-11-29T12:03:56.028Z,38.63
2022-11-29T12:06:45.050Z,38.21
2022-11-29T12:09:52.940Z,38.31
2022-11-29T12:12:26.123Z,38.30
2022-11-29T12:15:08.724Z,38.14
2022-11-29T12:18:02.160Z,38.45
2022-11-29T12:20:40.235Z,38.30
2022-11-29T12:23:13.555Z,38.29
2022-11-29T12:25:58.223Z,38.23
2022-11-29T12:28:33.290Z,38.24
2022-11-29T12:31:31.614Z,38.16
2022-11-29T12:34:22.635Z,38.29
2022-11-29T12:37:21.710Z,37.95
2022-11-29T12:40:00.455Z,38.18
2022-11-29T12:43:04.079Z,38.29
2022-11-29T12:45:40.041Z,38.57
2022-11-29T12:48:31.665Z,38.12
2022-11-29T12:51:14.162Z,38.19
2022-11-29T12:54:05.931Z,38.30
2022-11-29T12:56:35.998Z,37.99
2022-11-29T12:59:54.078Z,38.59
2022-11-29T13:02:45.812Z,38.55
2022-11-29T13:05:31.048Z,38.37
2022-11-29T13:08:22.927Z,38.35
2022-11-29T13:11:19.648Z,38.07
2022-11-29T13:14:43.205Z,37.68
2022-11-29T13:17:27.870Z,37.47
2022-11-29T13:20:31.902Z,36.93
2022-11-29T13:23:45.614Z,36.54
2022-11-29T13:26:39.699Z,36.22
2022-11-29T13:29:25.000Z,36.53
2022-11-29T13:32:14.546Z,37.05
2022-11-29T13:34:51.543Z,37.17
2022-11-29T13:37:38.558Z,36.74
2022-11-29T13:40:34.025Z,36.69
2022-11-29T13:43:18.793Z,35.23
2022-11-29T13:46:01.466Z,34.91
2022-11-29T13:48:32.474Z,35.29
2022-11-29T13:51:25.438Z,35.81
2022-11-29T13:54:04.430Z,35.78
2022-11-29T13:56:50.990Z,36.31
2022-11-29T13:59:31.489Z,36.46
2022-11-29T14:02:02.322Z,36.45
2022-11-29T14:04:46.284Z,36.43
2022-11-29T14:07:21.093Z,36.54
2022-11-29T14:10:28.306Z,36.31
2022-11-29T14:13:01.976Z,36.86
2022-11-29T14:15:38.765Z,36.43
2022-11-29T14:18:42.240Z,36.59
2022-11-29T14:21:16.963Z,36.78
2022-11-29T14:23:52.708Z,36.81
2022-11-29T14:26:29.171Z,36.22
2022-11-29T14:29:23.282Z,36.25
2022-11-29T14:31:58.694Z,35.86
2022-11-29T14:34:35.062Z,35.86
2022-11-29T14:37:16.755Z,36.19
2022-11-29T14:39:54.182Z,35.96
2022-11-29T14:42:32.468Z,36.05
2022-11-29T14:45:34.261Z,36.42
2022-11-29T14:48:24.422Z,36.76
2022-11-29T14:51:17.657Z,37.03
2022-11-29T14:53:49.118Z,36.65
2022-11-29T14:56:39.227Z,36.10
2022-11-29T14:59:49.218Z,37.16
2022-11-29T15:02:39.838Z,36.93
2022-11-29T15:05:22.505Z,37.06
2022-11-29T15:08:20.875Z,36.76
2022-11-29T15:10:53.523Z,36.81
2022-11-29T15:13:41.231Z,36.78
2022-11-29T15:16:46.032Z,36.77
2022-11-29T15:19:35.580Z,36.91
2022-11-29T15:22:26.969Z,37.04
2022-11-29T15:25:08.438Z,36.77
2022-11-29T15:27:40.114Z,37.14
2022-11-29T15:30:41.054Z,37.45
2022-11-29T15:33:23.611Z,37.21
2022-11-29T15:36:03.949Z,37.02
2022-11-29T15:38:46.525Z,37.43
2022-11-29T15:41:32.425Z,37.42
2022-11-29T15:44:10.243Z,37.93
2022-11-29T15:46:44.429Z,38.23
2022-11-29T15:49:27.196Z,38.11
2022-11-29T15:52:11.055Z,38.10
2022-11-29T15:54:49.305Z,37.97
2022-11-29T15:57:43.126Z,38.17
2022-11-29T16:00:24.801Z,37.91
2022-11-29T16:03:09.464Z,37.86
2022-11-29T16:05:44.577Z,38.07
2022-11-29T16:08:22.978Z,38.08
2022-11-29T16:10:55.742Z,38.06
2022-11-29T16:13:36.496Z,37.59
2022-11-29T16:16:23.497Z,36.83
2022-11-29T16:18:54.615Z,36.73
2022-11-29T16:21:31.626Z,37.19
2022-11-29T16:24:22.625Z,37.04
2022-11-29T16:27:03.201Z,37.81
2022-11-29T16:29:55.838Z,37.78
2022-11-29T16:32:42.102Z,38.43
2022-11-29T16:35:29.990Z,37.77
2022-11-29T16:38:07.265Z,37.92
2022-11-29T16:40:41.336Z,37.75
2022-11-29T16:43:53.879Z,38.18
2022-11-29T16:46:37.636Z,38.72
2022-11-29T16:49:38.966Z,38.69
2022-11-29T16:52:29.007Z,38.63
2022-11-29T16:55:06.749Z,39.29
2022-11-29T16:57:37.553Z,38.65
2022-11-29T17:00:31.908Z,38.31
2022-11-29T17:03:10.481Z,38.63
2022-11-29T17:05:44.920Z,38.71
2022-11-29T17:08:15.822Z,38.94
2022-11-29T17:10:46.820Z,38.81
2022-11-29T17:13:20.526Z,39.81
2022-11-29T17:16:02.437Z,39.75
2022-11-29T17:18:44.958Z,38.84
2022-11-29T17:21:29.704Z,38.17
2022-11-29T17:24:06.865Z,38.82
2022-11-29T17:26:44.029Z,39.06
2022-11-29T17:29:23.801Z,39.13
2022-11-29T17:32:04.317Z,39.02
2022-11-29T17:34:49.783Z,39.75
2022-11-29T17:37:39.780Z,39.49
2022-11-29T17:40:13.144Z,39.24
2022-11-29T17:42:54.608Z,38.81
2022-11-29T17:45:28.678Z,39.41
2022-11-29T17:48:02.066Z,39.40
2022-11-29T17:50:40.463Z,39.42
2022-11-29T17:53:10.508Z,39.61
2022-11-29T17:55:49.425Z,39.75
2022-11-29T17:58:24.273Z,39.49
2022-11-29T18:01:13.347Z,39.40
2022-11-29T18:03:45.721Z,39.25
2022-11-29T18:06:18.542Z,39.18
2022-11-29T18:08:57.849Z,39.47
2022-11-29T18:11:52.291Z,39.78
2022-11-29T18:14:34.335Z,39.74
2022-11-29T18:17:14.804Z,39.64
2022-11-29T18:19:56.500Z,39.43
2022-11-29T18:22:36.495Z,39.03
2022-11-29T18:25:37.543Z,39.13
2022-11-29T18:28:14.266Z,39.52
2022-11-29T18:30:44.512Z,39.50
2022-11-29T18:33:23.642Z,39.54
2022-11-29T18:36:05.459Z,39.24
2022-11-29T18:38:39.376Z,39.43
2022-11-29T18:41:21.475Z,39.17
2022-11-29T18:44:00.593Z,39.25
2022-11-29T18:46:40.529Z,39.72
2022-11-29T18:49:18.250Z,39.27
2022-11-29T18:51:52.207Z,39.42
2022-11-29T18:54:31.703Z,39.41
2022-11-29T18:57:00.663Z,39.04
2022-11-29T18:59:44.405Z,39.21
2022-11-29T19:02:21.432Z,39.14
2022-11-29T19:04:54.196Z,39.30
2022-11-29T19:07:29.418Z,39.53
2022-11-29T19:10:02.761Z,39.28
2022-11-29T19:12:39.083Z,39.27
2022-11-29T19:15:13.382Z,38.95
2022-11-29T19:17:45.052Z,39.17
2022-11-29T19:20:16.225Z,38.95
2022-11-29T19:23:00.297Z,39.11
2022-11-29T19:25:39.368Z,39.16
2022-11-29T19:28:14.403Z,39.30
2022-11-29T19:30:57.625Z,39.07
2022-11-29T19:33:31.937Z,39.00
2022-11-29T19:36:15.245Z,38.91
2022-11-29T19:38:55.299Z,39.07
2022-11-29T19:41:37.464Z,39.10
2022-11-29T19:44:12.868Z,38.85
2022-11-29T19:46:48.276Z,39.18
2022-11-29T19:49:32.077Z,39.00
2022-11-29T19:52:09.663Z,39.23
2022-11-29T19:54:45.552Z,39.13
2022-11-29T19:57:16.599Z,39.15
2022-11-29T20:02:26.062Z,39.11
2022-11-29T20:05:02.311Z,39.08
2022-11-29T20:07:37.414Z,38.79
2022-11-29T20:10:13.980Z,39.03
2022-11-29T20:12:52.848Z,39.18
2022-11-29T20:15:29.182Z,39.21
2022-11-29T20:18:08.212Z,39.11
2022-11-29T20:20:47.120Z,38.95
2022-11-29T20:23:25.878Z,38.88
2022-11-29T20:25:56.945Z,38.85
2022-11-29T20:28:38.781Z,38.76
2022-11-29T20:31:21.216Z,39.04
2022-11-29T20:34:00.963Z,38.74
2022-11-29T20:37:07.568Z,38.80
2022-11-29T20:39:50.179Z,38.99
2022-11-29T20:42:39.476Z,38.96
2022-11-29T20:45:16.398Z,38.87
2022-11-29T20:48:02.585Z,38.65
2022-11-29T20:50:39.158Z,38.85
2022-11-29T20:53:36.138Z,38.99
2022-11-29T20:56:05.596Z,38.90
2022-11-29T20:58:42.233Z,39.03
2022-11-29T21:01:18.262Z,39.18
2022-11-29T21:03:57.036Z,39.04
2022-11-29T21:06:27.301Z,39.15
2022-11-29T21:09:03.313Z,39.04
2022-11-29T21:11:39.459Z,39.01
2022-11-29T21:14:10.733Z,38.97
2022-11-29T21:16:48.807Z,39.21
2022-11-29T21:19:28.700Z,39.05
2022-11-29T21:22:29.528Z,38.85
2022-11-29T21:25:15.073Z,39.02
2022-11-29T21:27:48.701Z,38.93
2022-11-29T21:30:26.604Z,38.78
2022-11-29T21:33:06.659Z,39.09
2022-11-29T21:35:48.966Z,39.07
2022-11-29T21:38:23.139Z,39.11
2022-11-29T21:41:03.840Z,38.78
2022-11-29T21:44:05.439Z,38.75
2022-11-29T21:46:45.696Z,38.90
2022-11-29T21:49:29.683Z,38.79
2022-11-29T21:52:05.165Z,38.50
2022-11-29T21:54:41.094Z,38.79
2022-11-29T21:57:22.144Z,38.71
2022-11-29T22:00:03.937Z,38.74
2022-11-29T22:02:37.413Z,38.71
2022-11-29T22:05:18.584Z,38.79
2022-11-29T22:07:58.199Z,38.63
2022-11-29T22:10:32.811Z,38.64
2022-11-29T22:13:14.448Z,38.92
2022-11-29T22:15:50.821Z,38.88
2022-11-29T22:18:27.867Z,38.68
2022-11-29T22:21:07.105Z,38.74
2022-11-29T22:23:45.332Z,38.69
2022-11-29T22:26:18.899Z,38.81
2022-11-29T22:28:59.627Z,38.66
2022-11-29T22:31:37.308Z,38.78
2022-11-29T22:34:09.050Z,38.72
2022-11-29T22:36:40.731Z,38.91
2022-11-29T22:39:14.725Z,38.53
2022-11-29T22:41:55.068Z,38.66
2022-11-29T22:44:39.866Z,38.75
2022-11-29T22:47:15.721Z,38.67
2022-11-29T22:49:51.986Z,38.73
2022-11-29T22:52:26.988Z,38.44
2022-11-29T22:55:08.641Z,38.82
2022-11-29T22:57:43.724Z,38.85
2022-11-29T23:00:17.877Z,38.66
2022-11-29T23:03:00.535Z,38.76
2022-11-29T23:05:38.750Z,38.76
2022-11-29T23:08:11.544Z,38.68
2022-11-29T23:10:47.558Z,39.16
2022-11-29T23:13:23.429Z,38.71
2022-11-29T23:16:05.890Z,38.76
2022-11-29T23:18:42.257Z,38.78
2022-11-29T23:21:37.111Z,38.71
2022-11-29T23:24:12.896Z,38.80
2022-11-29T23:26:49.905Z,38.83
2022-11-29T23:29:28.713Z,38.33
2022-11-29T23:32:00.758Z,38.68
2022-11-29T23:34:40.197Z,38.61
2022-11-29T23:37:10.682Z,38.69
2022-11-29T23:39:53.211Z,38.48
2022-11-29T23:42:31.388Z,38.62
2022-11-29T23:45:07.343Z,38.67
2022-11-29T23:47:42.979Z,38.68
2022-11-29T23:50:21.987Z,38.57
2022-11-29T23:52:59.479Z,38.60
2022-11-29T23:55:39.917Z,38.62
2022-11-29T23:58:12.964Z,38.58
